sensor_id;sensor_type;location;lat;lon;timestamp;P1;durP1;ratioP1;P2;durP2;ratioP2
71629;SDS011;59479;51.902;8.212;2022-11-23T00:02:07;3.67;;;1.87;;
71629;SDS011;59479;51.902;8.212;2022-11-23T00:04:32;6.40;;;1.90;;
71629;SDS011;59479;51.902;8.212;2022-11-23T00:06:57;4.90;;;1.60;;
71629;SDS011;59479;51.902;8.212;2022-11-23T00:09:22;4.77;;;1.40;;
71629;SDS011;59479;51.902;8.212;2022-11-23T00:11:48;6.00;;;2.23;;
71629;SDS011;59479;51.902;8.212;2022-11-23T00:14:13;4.73;;;1.43;;
71629;SDS011;59479;51.902;8.212;2022-11-23T00:16:38;5.00;;;1.47;;
71629;SDS011;59479;51.902;8.212;2022-11-23T00:19:04;4.67;;;1.83;;
71629;SDS011;59479;51.902;8.212;2022-11-23T00:21:29;4.18;;;1.38;;
71629;SDS011;59479;51.902;8.212;2022-11-23T00:23:56;4.77;;;1.50;;
71629;SDS011;59479;51.902;8.212;2022-11-23T00:26:22;4.13;;;1.88;;
71629;SDS011;59479;51.902;8.212;2022-11-23T00:28:47;5.40;;;1.70;;
71629;SDS011;59479;51.902;8.212;2022-11-23T00:31:14;5.40;;;1.90;;
71629;SDS011;59479;51.902;8.212;2022-11-23T00:33:41;5.45;;;1.92;;
71629;SDS011;59479;51.902;8.212;2022-11-23T00:36:11;5.75;;;2.10;;
71629;SDS011;59479;51.902;8.212;2022-11-23T00:38:39;3.70;;;1.83;;
71629;SDS011;59479;51.902;8.212;2022-11-23T00:41:07;5.77;;;1.60;;
71629;SDS011;59479;51.902;8.212;2022-11-23T00:43:35;6.70;;;2.20;;
71629;SDS011;59479;51.902;8.212;2022-11-23T00:46:01;6.67;;;1.70;;
71629;SDS011;59479;51.902;8.212;2022-11-23T00:48:27;6.00;;;1.63;;
71629;SDS011;59479;51.902;8.212;2022-11-23T00:50:52;5.60;;;1.80;;
71629;SDS011;59479;51.902;8.212;2022-11-23T00:53:17;3.70;;;2.00;;
71629;SDS011;59479;51.902;8.212;2022-11-23T00:55:49;4.60;;;1.90;;
71629;SDS011;59479;51.902;8.212;2022-11-23T00:58:18;4.82;;;1.70;;
71629;SDS011;59479;51.902;8.212;2022-11-23T01:00:44;4.22;;;2.00;;
71629;SDS011;59479;51.902;8.212;2022-11-23T01:03:10;6.27;;;1.90;;
71629;SDS011;59479;51.902;8.212;2022-11-23T01:05:35;6.37;;;1.60;;
71629;SDS011;59479;51.902;8.212;2022-11-23T01:08:01;4.85;;;1.70;;
71629;SDS011;59479;51.902;8.212;2022-11-23T01:10:31;5.07;;;2.05;;
71629;SDS011;59479;51.902;8.212;2022-11-23T01:12:57;5.65;;;1.80;;
71629;SDS011;59479;51.902;8.212;2022-11-23T01:15:22;5.63;;;1.87;;
71629;SDS011;59479;51.902;8.212;2022-11-23T01:17:47;4.60;;;1.60;;
71629;SDS011;59479;51.902;8.212;2022-11-23T01:20:13;5.88;;;2.22;;
71629;SDS011;59479;51.902;8.212;2022-11-23T01:22:39;4.67;;;1.67;;
71629;SDS011;59479;51.902;8.212;2022-11-23T01:25:04;4.87;;;1.67;;
71629;SDS011;59479;51.902;8.212;2022-11-23T01:27:30;4.85;;;2.00;;
71629;SDS011;59479;51.902;8.212;2022-11-23T01:29:55;4.67;;;1.47;;
71629;SDS011;59479;51.902;8.212;2022-11-23T01:32:20;3.70;;;1.40;;
71629;SDS011;59479;51.902;8.212;2022-11-23T01:34:46;6.00;;;1.30;;
71629;SDS011;59479;51.902;8.212;2022-11-23T01:37:11;4.90;;;1.70;;
71629;SDS011;59479;51.902;8.212;2022-11-23T01:39:36;5.77;;;1.80;;
71629;SDS011;59479;51.902;8.212;2022-11-23T01:42:02;6.97;;;1.53;;
71629;SDS011;59479;51.902;8.212;2022-11-23T01:44:32;4.35;;;1.40;;
71629;SDS011;59479;51.902;8.212;2022-11-23T01:46:59;7.45;;;1.83;;
71629;SDS011;59479;51.902;8.212;2022-11-23T01:49:26;6.88;;;1.67;;
71629;SDS011;59479;51.902;8.212;2022-11-23T01:51:56;4.22;;;1.50;;
71629;SDS011;59479;51.902;8.212;2022-11-23T01:54:27;4.97;;;2.30;;
71629;SDS011;59479;51.902;8.212;2022-11-23T01:56:57;5.32;;;1.77;;
71629;SDS011;59479;51.902;8.212;2022-11-23T01:59:25;5.28;;;1.67;;
71629;SDS011;59479;51.902;8.212;2022-11-23T02:01:52;6.00;;;1.65;;
71629;SDS011;59479;51.902;8.212;2022-11-23T02:04:28;7.10;;;1.93;;
71629;SDS011;59479;51.902;8.212;2022-11-23T02:06:58;7.00;;;1.83;;
71629;SDS011;59479;51.902;8.212;2022-11-23T02:09:26;4.97;;;1.60;;
71629;SDS011;59479;51.902;8.212;2022-11-23T02:11:54;3.67;;;1.50;;
71629;SDS011;59479;51.902;8.212;2022-11-23T02:14:20;4.10;;;1.57;;
71629;SDS011;59479;51.902;8.212;2022-11-23T02:16:45;5.80;;;1.58;;
71629;SDS011;59479;51.902;8.212;2022-11-23T02:19:32;7.60;;;1.37;;
71629;SDS011;59479;51.902;8.212;2022-11-23T02:22:19;5.77;;;1.80;;
71629;SDS011;59479;51.902;8.212;2022-11-23T02:24:51;5.70;;;1.77;;
71629;SDS011;59479;51.902;8.212;2022-11-23T02:27:19;4.97;;;1.58;;
71629;SDS011;59479;51.902;8.212;2022-11-23T02:29:45;3.30;;;1.20;;
71629;SDS011;59479;51.902;8.212;2022-11-23T02:32:15;4.78;;;1.40;;
71629;SDS011;59479;51.902;8.212;2022-11-23T02:34:43;4.37;;;1.63;;
71629;SDS011;59479;51.902;8.212;2022-11-23T02:37:08;6.88;;;1.70;;
71629;SDS011;59479;51.902;8.212;2022-11-23T02:39:39;6.20;;;1.57;;
71629;SDS011;59479;51.902;8.212;2022-11-23T02:42:08;6.77;;;1.80;;
71629;SDS011;59479;51.902;8.212;2022-11-23T02:47:27;3.93;;;1.07;;
71629;SDS011;59479;51.902;8.212;2022-11-23T02:49:53;3.93;;;1.10;;
71629;SDS011;59479;51.902;8.212;2022-11-23T02:52:18;6.15;;;1.48;;
71629;SDS011;59479;51.902;8.212;2022-11-23T02:54:44;4.50;;;1.30;;
71629;SDS011;59479;51.902;8.212;2022-11-23T02:57:09;7.30;;;2.10;;
71629;SDS011;59479;51.902;8.212;2022-11-23T02:59:35;3.38;;;1.50;;
71629;SDS011;59479;51.902;8.212;2022-11-23T03:02:01;5.90;;;1.80;;
71629;SDS011;59479;51.902;8.212;2022-11-23T03:04:28;7.47;;;1.60;;
71629;SDS011;59479;51.902;8.212;2022-11-23T03:06:56;7.93;;;1.80;;
71629;SDS011;59479;51.902;8.212;2022-11-23T03:09:22;7.77;;;1.57;;
71629;SDS011;59479;51.902;8.212;2022-11-23T03:11:50;7.22;;;1.40;;
71629;SDS011;59479;51.902;8.212;2022-11-23T03:14:15;4.43;;;1.70;;
71629;SDS011;59479;51.902;8.212;2022-11-23T03:16:40;6.37;;;1.50;;
71629;SDS011;59479;51.902;8.212;2022-11-23T03:19:06;4.82;;;1.42;;
71629;SDS011;59479;51.902;8.212;2022-11-23T03:21:31;6.17;;;1.70;;
71629;SDS011;59479;51.902;8.212;2022-11-23T03:23:56;4.53;;;1.53;;
71629;SDS011;59479;51.902;8.212;2022-11-23T03:26:22;6.33;;;1.50;;
71629;SDS011;59479;51.902;8.212;2022-11-23T03:28:48;6.25;;;1.58;;
71629;SDS011;59479;51.902;8.212;2022-11-23T03:31:13;5.03;;;1.80;;
71629;SDS011;59479;51.902;8.212;2022-11-23T03:33:39;4.03;;;1.50;;
71629;SDS011;59479;51.902;8.212;2022-11-23T03:36:04;7.07;;;1.70;;
71629;SDS011;59479;51.902;8.212;2022-11-23T03:38:30;3.72;;;1.67;;
71629;SDS011;59479;51.902;8.212;2022-11-23T03:40:55;5.70;;;1.80;;
71629;SDS011;59479;51.902;8.212;2022-11-23T03:43:20;4.67;;;1.67;;
71629;SDS011;59479;51.902;8.212;2022-11-23T03:45:46;4.53;;;1.40;;
71629;SDS011;59479;51.902;8.212;2022-11-23T03:48:12;5.68;;;1.25;;
71629;SDS011;59479;51.902;8.212;2022-11-23T03:50:37;4.60;;;1.50;;
71629;SDS011;59479;51.902;8.212;2022-11-23T03:53:03;7.63;;;1.63;;
71629;SDS011;59479;51.902;8.212;2022-11-23T03:55:28;6.23;;;1.80;;
71629;SDS011;59479;51.902;8.212;2022-11-23T03:57:54;5.03;;;2.10;;
71629;SDS011;59479;51.902;8.212;2022-11-23T04:00:23;6.20;;;1.50;;
71629;SDS011;59479;51.902;8.212;2022-11-23T04:02:49;5.77;;;1.57;;
71629;SDS011;59479;51.902;8.212;2022-11-23T04:05:15;4.68;;;1.30;;
71629;SDS011;59479;51.902;8.212;2022-11-23T04:07:40;5.60;;;1.53;;
71629;SDS011;59479;51.902;8.212;2022-11-23T04:10:05;5.53;;;1.80;;
71629;SDS011;59479;51.902;8.212;2022-11-23T04:12:31;4.80;;;1.50;;
71629;SDS011;59479;51.902;8.212;2022-11-23T04:14:56;4.77;;;1.63;;
71629;SDS011;59479;51.902;8.212;2022-11-23T04:17:22;6.00;;;1.50;;
71629;SDS011;59479;51.902;8.212;2022-11-23T04:19:47;4.20;;;1.50;;
71629;SDS011;59479;51.902;8.212;2022-11-23T04:22:12;5.43;;;1.60;;
71629;SDS011;59479;51.902;8.212;2022-11-23T04:24:37;4.87;;;1.60;;
71629;SDS011;59479;51.902;8.212;2022-11-23T04:27:03;6.27;;;1.47;;
71629;SDS011;59479;51.902;8.212;2022-11-23T04:29:28;5.90;;;1.57;;
71629;SDS011;59479;51.902;8.212;2022-11-23T04:31:53;4.77;;;1.73;;
71629;SDS011;59479;51.902;8.212;2022-11-23T04:34:19;5.50;;;1.50;;
71629;SDS011;59479;51.902;8.212;2022-11-23T04:36:44;5.57;;;1.43;;
71629;SDS011;59479;51.902;8.212;2022-11-23T04:39:10;3.95;;;1.55;;
71629;SDS011;59479;51.902;8.212;2022-11-23T04:41:36;4.93;;;1.50;;
71629;SDS011;59479;51.902;8.212;2022-11-23T04:44:02;4.68;;;1.75;;
71629;SDS011;59479;51.902;8.212;2022-11-23T04:46:27;6.30;;;1.77;;
71629;SDS011;59479;51.902;8.212;2022-11-23T04:48:52;5.50;;;1.50;;
71629;SDS011;59479;51.902;8.212;2022-11-23T04:51:18;8.17;;;1.83;;
71629;SDS011;59479;51.902;8.212;2022-11-23T04:53:43;3.60;;;1.30;;
71629;SDS011;59479;51.902;8.212;2022-11-23T04:56:08;3.63;;;1.40;;
71629;SDS011;59479;51.902;8.212;2022-11-23T04:58:34;8.60;;;1.60;;
71629;SDS011;59479;51.902;8.212;2022-11-23T05:01:00;4.10;;;1.30;;
71629;SDS011;59479;51.902;8.212;2022-11-23T05:03:26;5.83;;;1.40;;
71629;SDS011;59479;51.902;8.212;2022-11-23T05:05:51;5.70;;;1.45;;
71629;SDS011;59479;51.902;8.212;2022-11-23T05:08:17;3.73;;;1.13;;
71629;SDS011;59479;51.902;8.212;2022-11-23T05:10:42;3.83;;;1.60;;
71629;SDS011;59479;51.902;8.212;2022-11-23T05:13:08;4.85;;;1.52;;
71629;SDS011;59479;51.902;8.212;2022-11-23T05:15:36;6.47;;;1.83;;
71629;SDS011;59479;51.902;8.212;2022-11-23T05:18:02;4.05;;;1.52;;
71629;SDS011;59479;51.902;8.212;2022-11-23T05:20:31;7.87;;;1.60;;
71629;SDS011;59479;51.902;8.212;2022-11-23T05:22:56;4.80;;;1.52;;
71629;SDS011;59479;51.902;8.212;2022-11-23T05:25:22;5.00;;;1.88;;
71629;SDS011;59479;51.902;8.212;2022-11-23T05:27:48;4.40;;;1.20;;
71629;SDS011;59479;51.902;8.212;2022-11-23T05:30:13;5.27;;;1.47;;
71629;SDS011;59479;51.902;8.212;2022-11-23T05:32:39;3.15;;;1.50;;
71629;SDS011;59479;51.902;8.212;2022-11-23T05:35:04;3.63;;;1.40;;
71629;SDS011;59479;51.902;8.212;2022-11-23T05:37:30;5.17;;;1.80;;
71629;SDS011;59479;51.902;8.212;2022-11-23T05:39:55;4.70;;;1.92;;
71629;SDS011;59479;51.902;8.212;2022-11-23T05:42:21;4.30;;;1.40;;
71629;SDS011;59479;51.902;8.212;2022-11-23T05:44:46;4.83;;;1.40;;
71629;SDS011;59479;51.902;8.212;2022-11-23T05:47:11;3.57;;;1.40;;
71629;SDS011;59479;51.902;8.212;2022-11-23T05:49:37;6.77;;;1.70;;
71629;SDS011;59479;51.902;8.212;2022-11-23T05:52:02;4.23;;;1.70;;
71629;SDS011;59479;51.902;8.212;2022-11-23T05:54:28;4.95;;;1.42;;
71629;SDS011;59479;51.902;8.212;2022-11-23T05:56:53;3.90;;;1.67;;
71629;SDS011;59479;51.902;8.212;2022-11-23T05:59:18;5.77;;;1.77;;
71629;SDS011;59479;51.902;8.212;2022-11-23T06:01:43;3.90;;;1.50;;
71629;SDS011;59479;51.902;8.212;2022-11-23T06:04:09;3.77;;;1.73;;
71629;SDS011;59479;51.902;8.212;2022-11-23T06:06:34;6.10;;;1.80;;
71629;SDS011;59479;51.902;8.212;2022-11-23T06:08:59;5.57;;;1.57;;
71629;SDS011;59479;51.902;8.212;2022-11-23T06:11:25;4.30;;;1.57;;
71629;SDS011;59479;51.902;8.212;2022-11-23T06:13:50;4.17;;;1.73;;
71629;SDS011;59479;51.902;8.212;2022-11-23T06:16:15;4.70;;;1.35;;
71629;SDS011;59479;51.902;8.212;2022-11-23T06:18:41;4.53;;;1.40;;
71629;SDS011;59479;51.902;8.212;2022-11-23T06:21:06;5.10;;;1.60;;
71629;SDS011;59479;51.902;8.212;2022-11-23T06:23:31;4.77;;;1.70;;
71629;SDS011;59479;51.902;8.212;2022-11-23T06:26:00;4.27;;;1.60;;
71629;SDS011;59479;51.902;8.212;2022-11-23T06:28:25;4.63;;;1.70;;
71629;SDS011;59479;51.902;8.212;2022-11-23T06:30:52;8.13;;;1.80;;
71629;SDS011;59479;51.902;8.212;2022-11-23T06:33:18;4.73;;;1.70;;
71629;SDS011;59479;51.902;8.212;2022-11-23T06:35:53;5.70;;;1.87;;
71629;SDS011;59479;51.902;8.212;2022-11-23T06:38:20;3.22;;;1.40;;
71629;SDS011;59479;51.902;8.212;2022-11-23T06:40:45;4.90;;;1.70;;
71629;SDS011;59479;51.902;8.212;2022-11-23T06:43:10;4.90;;;1.83;;
71629;SDS011;59479;51.902;8.212;2022-11-23T06:45:36;4.97;;;1.50;;
71629;SDS011;59479;51.902;8.212;2022-11-23T06:48:01;5.63;;;2.20;;
71629;SDS011;59479;51.902;8.212;2022-11-23T06:50:26;4.63;;;1.83;;
71629;SDS011;59479;51.902;8.212;2022-11-23T06:52:55;5.50;;;2.10;;
71629;SDS011;59479;51.902;8.212;2022-11-23T06:55:21;5.05;;;1.90;;
71629;SDS011;59479;51.902;8.212;2022-11-23T06:57:48;5.53;;;1.60;;
71629;SDS011;59479;51.902;8.212;2022-11-23T07:00:13;6.73;;;1.80;;
71629;SDS011;59479;51.902;8.212;2022-11-23T07:02:39;6.68;;;1.70;;
71629;SDS011;59479;51.902;8.212;2022-11-23T07:05:04;4.33;;;1.57;;
71629;SDS011;59479;51.902;8.212;2022-11-23T07:07:30;4.50;;;1.50;;
71629;SDS011;59479;51.902;8.212;2022-11-23T07:09:56;6.30;;;1.75;;
71629;SDS011;59479;51.902;8.212;2022-11-23T07:12:21;9.00;;;1.70;;
71629;SDS011;59479;51.902;8.212;2022-11-23T07:14:46;10.43;;;1.93;;
71629;SDS011;59479;51.902;8.212;2022-11-23T07:17:12;6.03;;;1.77;;
71629;SDS011;59479;51.902;8.212;2022-11-23T07:19:37;4.60;;;1.73;;
71629;SDS011;59479;51.902;8.212;2022-11-23T07:22:02;4.20;;;1.95;;
71629;SDS011;59479;51.902;8.212;2022-11-23T07:24:28;5.70;;;1.90;;
71629;SDS011;59479;51.902;8.212;2022-11-23T07:26:53;4.00;;;1.67;;
71629;SDS011;59479;51.902;8.212;2022-11-23T07:29:18;5.73;;;1.80;;
71629;SDS011;59479;51.902;8.212;2022-11-23T07:31:44;8.77;;;2.00;;
71629;SDS011;59479;51.902;8.212;2022-11-23T07:34:09;6.03;;;1.87;;
71629;SDS011;59479;51.902;8.212;2022-11-23T07:36:35;6.78;;;1.83;;
71629;SDS011;59479;51.902;8.212;2022-11-23T07:39:00;6.67;;;1.83;;
71629;SDS011;59479;51.902;8.212;2022-11-23T07:41:26;6.73;;;2.10;;
71629;SDS011;59479;51.902;8.212;2022-11-23T07:43:51;6.50;;;2.00;;
71629;SDS011;59479;51.902;8.212;2022-11-23T07:46:17;4.73;;;1.50;;
71629;SDS011;59479;51.902;8.212;2022-11-23T07:48:42;3.93;;;1.63;;
71629;SDS011;59479;51.902;8.212;2022-11-23T07:51:07;6.80;;;1.67;;
71629;SDS011;59479;51.902;8.212;2022-11-23T07:53:33;6.00;;;2.07;;
71629;SDS011;59479;51.902;8.212;2022-11-23T07:56:00;6.50;;;1.42;;
71629;SDS011;59479;51.902;8.212;2022-11-23T07:58:25;4.70;;;1.50;;
71629;SDS011;59479;51.902;8.212;2022-11-23T08:00:50;4.83;;;1.90;;
71629;SDS011;59479;51.902;8.212;2022-11-23T08:03:16;5.03;;;1.47;;
71629;SDS011;59479;51.902;8.212;2022-11-23T08:05:41;4.30;;;1.73;;
71629;SDS011;59479;51.902;8.212;2022-11-23T08:08:06;4.72;;;1.60;;
71629;SDS011;59479;51.902;8.212;2022-11-23T08:10:32;5.83;;;1.20;;
71629;SDS011;59479;51.902;8.212;2022-11-23T08:12:57;5.80;;;2.20;;
71629;SDS011;59479;51.902;8.212;2022-11-23T08:15:23;4.72;;;2.05;;
71629;SDS011;59479;51.902;8.212;2022-11-23T08:17:52;6.43;;;1.83;;
71629;SDS011;59479;51.902;8.212;2022-11-23T08:20:21;5.63;;;1.70;;
71629;SDS011;59479;51.902;8.212;2022-11-23T08:22:47;5.43;;;1.40;;
71629;SDS011;59479;51.902;8.212;2022-11-23T08:25:12;6.33;;;1.80;;
71629;SDS011;59479;51.902;8.212;2022-11-23T08:27:37;4.67;;;1.60;;
71629;SDS011;59479;51.902;8.212;2022-11-23T08:30:03;5.80;;;1.73;;
71629;SDS011;59479;51.902;8.212;2022-11-23T08:32:28;4.22;;;1.40;;
71629;SDS011;59479;51.902;8.212;2022-11-23T08:34:54;8.87;;;2.97;;
71629;SDS011;59479;51.902;8.212;2022-11-23T08:37:24;4.38;;;1.73;;
71629;SDS011;59479;51.902;8.212;2022-11-23T08:39:49;5.85;;;1.60;;
71629;SDS011;59479;51.902;8.212;2022-11-23T08:44:58;5.18;;;1.73;;
71629;SDS011;59479;51.902;8.212;2022-11-23T08:47:34;4.33;;;1.80;;
71629;SDS011;59479;51.902;8.212;2022-11-23T08:50:03;6.53;;;1.73;;
71629;SDS011;59479;51.902;8.212;2022-11-23T08:53:21;6.18;;;1.58;;
71629;SDS011;59479;51.902;8.212;2022-11-23T08:56:17;5.70;;;2.33;;
71629;SDS011;59479;51.902;8.212;2022-11-23T08:58:46;7.97;;;1.67;;
71629;SDS011;59479;51.902;8.212;2022-11-23T09:01:19;6.03;;;1.60;;
71629;SDS011;59479;51.902;8.212;2022-11-23T09:04:03;5.95;;;2.17;;
71629;SDS011;59479;51.902;8.212;2022-11-23T09:06:37;4.32;;;1.52;;
71629;SDS011;59479;51.902;8.212;2022-11-23T09:09:33;5.05;;;1.70;;
71629;SDS011;59479;51.902;8.212;2022-11-23T09:12:08;5.73;;;1.50;;
71629;SDS011;59479;51.902;8.212;2022-11-23T09:14:49;3.38;;;1.38;;
71629;SDS011;59479;51.902;8.212;2022-11-23T09:17:19;5.28;;;1.80;;
71629;SDS011;59479;51.902;8.212;2022-11-23T09:20:03;6.75;;;1.60;;
71629;SDS011;59479;51.902;8.212;2022-11-23T09:23:01;5.95;;;1.80;;
71629;SDS011;59479;51.902;8.212;2022-11-23T09:27:57;4.05;;;1.30;;
71629;SDS011;59479;51.902;8.212;2022-11-23T09:30:48;4.75;;;1.30;;
71629;SDS011;59479;51.902;8.212;2022-11-23T09:33:40;5.70;;;1.73;;
71629;SDS011;59479;51.902;8.212;2022-11-23T09:36:11;6.25;;;1.98;;
71629;SDS011;59479;51.902;8.212;2022-11-23T09:38:45;4.60;;;1.30;;
71629;SDS011;59479;51.902;8.212;2022-11-23T09:44:54;8.35;;;2.35;;
71629;SDS011;59479;51.902;8.212;2022-11-23T09:50:11;6.60;;;2.00;;
71629;SDS011;59479;51.902;8.212;2022-11-23T09:52:45;5.07;;;1.77;;
71629;SDS011;59479;51.902;8.212;2022-11-23T09:55:20;6.88;;;1.58;;
71629;SDS011;59479;51.902;8.212;2022-11-23T09:58:06;4.35;;;1.58;;
71629;SDS011;59479;51.902;8.212;2022-11-23T10:01:11;4.20;;;1.65;;
71629;SDS011;59479;51.902;8.212;2022-11-23T10:03:46;5.43;;;1.88;;
71629;SDS011;59479;51.902;8.212;2022-11-23T10:12:28;4.97;;;1.60;;
71629;SDS011;59479;51.902;8.212;2022-11-23T10:15:37;6.45;;;1.83;;
71629;SDS011;59479;51.902;8.212;2022-11-23T10:24:18;6.47;;;1.65;;
71629;SDS011;59479;51.902;8.212;2022-11-23T10:27:19;7.18;;;1.85;;
71629;SDS011;59479;51.902;8.212;2022-11-23T10:29:51;9.05;;;1.50;;
71629;SDS011;59479;51.902;8.212;2022-11-23T10:35:00;6.70;;;1.40;;
71629;SDS011;59479;51.902;8.212;2022-11-23T10:37:36;5.75;;;1.65;;
71629;SDS011;59479;51.902;8.212;2022-11-23T10:40:57;6.50;;;1.80;;
71629;SDS011;59479;51.902;8.212;2022-11-23T10:43:51;8.30;;;1.70;;
71629;SDS011;59479;51.902;8.212;2022-11-23T10:46:31;7.03;;;1.95;;
71629;SDS011;59479;51.902;8.212;2022-11-23T10:49:21;7.37;;;1.67;;
71629;SDS011;59479;51.902;8.212;2022-11-23T10:51:55;7.85;;;1.60;;
71629;SDS011;59479;51.902;8.212;2022-11-23T10:54:51;5.80;;;1.40;;
71629;SDS011;59479;51.902;8.212;2022-11-23T11:02:53;5.97;;;1.43;;
71629;SDS011;59479;51.902;8.212;2022-11-23T11:05:47;8.00;;;1.92;;
71629;SDS011;59479;51.902;8.212;2022-11-23T11:08:15;8.50;;;1.70;;
71629;SDS011;59479;51.902;8.212;2022-11-23T11:11:10;6.43;;;1.45;;
71629;SDS011;59479;51.902;8.212;2022-11-23T11:14:21;9.27;;;2.00;;
71629;SDS011;59479;51.902;8.212;2022-11-23T11:23:11;9.35;;;1.98;;
71629;SDS011;59479;51.902;8.212;2022-11-23T11:26:07;7.75;;;1.50;;
71629;SDS011;59479;51.902;8.212;2022-11-23T11:29:14;6.50;;;1.67;;
71629;SDS011;59479;51.902;8.212;2022-11-23T11:32:08;8.83;;;1.40;;
71629;SDS011;59479;51.902;8.212;2022-11-23T11:34:48;4.65;;;1.50;;
71629;SDS011;59479;51.902;8.212;2022-11-23T11:37:49;5.25;;;1.73;;
71629;SDS011;59479;51.902;8.212;2022-11-23T11:43:35;5.10;;;1.50;;
71629;SDS011;59479;51.902;8.212;2022-11-23T11:46:53;5.03;;;1.50;;
71629;SDS011;59479;51.902;8.212;2022-11-23T11:49:40;10.07;;;1.48;;
71629;SDS011;59479;51.902;8.212;2022-11-23T11:52:33;6.03;;;1.70;;
71629;SDS011;59479;51.902;8.212;2022-11-23T11:55:21;6.15;;;2.22;;
71629;SDS011;59479;51.902;8.212;2022-11-23T11:58:09;5.93;;;1.88;;
71629;SDS011;59479;51.902;8.212;2022-11-23T12:00:57;5.73;;;1.67;;
71629;SDS011;59479;51.902;8.212;2022-11-23T12:03:37;6.10;;;1.92;;
71629;SDS011;59479;51.902;8.212;2022-11-23T12:13:41;7.28;;;2.22;;
71629;SDS011;59479;51.902;8.212;2022-11-23T13:35:46;7.55;;;2.28;;
71629;SDS011;59479;51.902;8.212;2022-11-23T14:41:58;9.45;;;3.15;;
71629;SDS011;59479;51.902;8.212;2022-11-23T14:44:26;5.70;;;2.72;;
71629;SDS011;59479;51.902;8.212;2022-11-23T14:47:03;12.02;;;2.63;;
71629;SDS011;59479;51.902;8.212;2022-11-23T14:49:34;6.30;;;2.00;;
71629;SDS011;59479;51.902;8.212;2022-11-23T14:52:04;8.93;;;2.25;;
71629;SDS011;59479;51.902;8.212;2022-11-23T14:54:30;7.35;;;2.65;;
71629;SDS011;59479;51.902;8.212;2022-11-23T14:56:58;5.78;;;1.90;;
71629;SDS011;59479;51.902;8.212;2022-11-23T14:59:31;7.70;;;2.17;;
71629;SDS011;59479;51.902;8.212;2022-11-23T15:02:16;4.60;;;1.87;;
71629;SDS011;59479;51.902;8.212;2022-11-23T15:07:25;7.10;;;2.25;;
71629;SDS011;59479;51.902;8.212;2022-11-23T15:13:15;8.38;;;2.30;;
71629;SDS011;59479;51.902;8.212;2022-11-23T15:15:44;5.87;;;1.73;;
71629;SDS011;59479;51.902;8.212;2022-11-23T15:18:11;7.35;;;2.28;;
71629;SDS011;59479;51.902;8.212;2022-11-23T15:20:41;6.63;;;2.63;;
71629;SDS011;59479;51.902;8.212;2022-11-23T15:23:23;7.47;;;2.67;;
71629;SDS011;59479;51.902;8.212;2022-11-23T15:25:54;5.70;;;2.47;;
71629;SDS011;59479;51.902;8.212;2022-11-23T15:28:30;7.22;;;2.47;;
71629;SDS011;59479;51.902;8.212;2022-11-23T15:30:58;9.82;;;2.55;;
71629;SDS011;59479;51.902;8.212;2022-11-23T15:33:24;9.43;;;3.10;;
71629;SDS011;59479;51.902;8.212;2022-11-23T15:35:50;8.67;;;2.93;;
71629;SDS011;59479;51.902;8.212;2022-11-23T15:38:19;8.57;;;2.67;;
71629;SDS011;59479;51.902;8.212;2022-11-23T15:40:46;7.95;;;2.90;;
71629;SDS011;59479;51.902;8.212;2022-11-23T15:43:16;10.15;;;3.42;;
71629;SDS011;59479;51.902;8.212;2022-11-23T15:48:11;8.13;;;2.63;;
71629;SDS011;59479;51.902;8.212;2022-11-23T15:50:55;6.63;;;3.20;;
71629;SDS011;59479;51.902;8.212;2022-11-23T15:53:26;8.93;;;3.45;;
71629;SDS011;59479;51.902;8.212;2022-11-23T15:55:57;8.00;;;3.38;;
71629;SDS011;59479;51.902;8.212;2022-11-23T15:58:25;10.32;;;3.10;;
71629;SDS011;59479;51.902;8.212;2022-11-23T16:01:05;8.17;;;3.50;;
71629;SDS011;59479;51.902;8.212;2022-11-23T16:03:47;10.07;;;2.72;;
71629;SDS011;59479;51.902;8.212;2022-11-23T16:06:34;7.40;;;2.47;;
71629;SDS011;59479;51.902;8.212;2022-11-23T16:12:21;7.28;;;3.25;;
71629;SDS011;59479;51.902;8.212;2022-11-23T16:18:00;12.50;;;4.45;;
71629;SDS011;59479;51.902;8.212;2022-11-23T16:20:26;12.10;;;4.25;;
71629;SDS011;59479;51.902;8.212;2022-11-23T16:22:53;10.18;;;3.40;;
71629;SDS011;59479;51.902;8.212;2022-11-23T16:25:30;8.88;;;2.80;;
71629;SDS011;59479;51.902;8.212;2022-11-23T16:28:01;7.03;;;2.30;;
71629;SDS011;59479;51.902;8.212;2022-11-23T16:30:42;5.95;;;2.22;;
71629;SDS011;59479;51.902;8.212;2022-11-23T16:33:12;6.25;;;2.20;;
71629;SDS011;59479;51.902;8.212;2022-11-23T16:35:44;7.60;;;1.80;;
71629;SDS011;59479;51.902;8.212;2022-11-23T16:38:10;7.35;;;1.90;;
71629;SDS011;59479;51.902;8.212;2022-11-23T16:40:36;8.83;;;2.13;;
71629;SDS011;59479;51.902;8.212;2022-11-23T16:43:02;5.00;;;2.00;;
71629;SDS011;59479;51.902;8.212;2022-11-23T16:45:28;7.35;;;2.55;;
71629;SDS011;59479;51.902;8.212;2022-11-23T16:47:54;8.30;;;2.57;;
71629;SDS011;59479;51.902;8.212;2022-11-23T16:50:31;6.95;;;2.50;;
71629;SDS011;59479;51.902;8.212;2022-11-23T16:53:19;5.18;;;2.38;;
71629;SDS011;59479;51.902;8.212;2022-11-23T16:55:45;7.27;;;2.33;;
71629;SDS011;59479;51.902;8.212;2022-11-23T16:58:15;4.57;;;1.90;;
71629;SDS011;59479;51.902;8.212;2022-11-23T17:00:41;6.97;;;2.05;;
71629;SDS011;59479;51.902;8.212;2022-11-23T17:03:15;7.17;;;2.20;;
71629;SDS011;59479;51.902;8.212;2022-11-23T17:05:44;6.10;;;2.08;;
71629;SDS011;59479;51.902;8.212;2022-11-23T17:08:13;4.35;;;1.65;;
71629;SDS011;59479;51.902;8.212;2022-11-23T17:10:39;5.40;;;1.92;;
71629;SDS011;59479;51.902;8.212;2022-11-23T17:13:05;5.53;;;1.85;;
71629;SDS011;59479;51.902;8.212;2022-11-23T17:15:35;9.07;;;2.53;;
71629;SDS011;59479;51.902;8.212;2022-11-23T17:18:02;11.80;;;2.17;;
71629;SDS011;59479;51.902;8.212;2022-11-23T17:20:28;6.35;;;2.30;;
71629;SDS011;59479;51.902;8.212;2022-11-23T17:22:53;5.33;;;2.23;;
71629;SDS011;59479;51.902;8.212;2022-11-23T17:25:26;8.43;;;2.25;;
71629;SDS011;59479;51.902;8.212;2022-11-23T17:27:55;7.25;;;2.60;;
71629;SDS011;59479;51.902;8.212;2022-11-23T17:30:25;9.57;;;3.30;;
71629;SDS011;59479;51.902;8.212;2022-11-23T17:32:56;10.88;;;3.83;;
71629;SDS011;59479;51.902;8.212;2022-11-23T17:35:21;9.30;;;3.33;;
71629;SDS011;59479;51.902;8.212;2022-11-23T17:37:55;6.68;;;2.65;;
71629;SDS011;59479;51.902;8.212;2022-11-23T17:40:40;7.35;;;3.05;;
71629;SDS011;59479;51.902;8.212;2022-11-23T17:43:15;14.10;;;3.60;;
71629;SDS011;59479;51.902;8.212;2022-11-23T17:45:45;9.88;;;2.65;;
71629;SDS011;59479;51.902;8.212;2022-11-23T17:48:20;6.27;;;2.40;;
71629;SDS011;59479;51.902;8.212;2022-11-23T17:50:51;8.73;;;2.70;;
71629;SDS011;59479;51.902;8.212;2022-11-23T17:53:22;7.75;;;2.53;;
71629;SDS011;59479;51.902;8.212;2022-11-23T17:55:51;7.28;;;2.55;;
71629;SDS011;59479;51.902;8.212;2022-11-23T17:58:22;8.77;;;3.08;;
71629;SDS011;59479;51.902;8.212;2022-11-23T18:00:50;10.20;;;2.30;;
71629;SDS011;59479;51.902;8.212;2022-11-23T18:03:45;7.50;;;2.40;;
71629;SDS011;59479;51.902;8.212;2022-11-23T18:06:27;7.30;;;2.95;;
71629;SDS011;59479;51.902;8.212;2022-11-23T18:12:15;7.47;;;2.58;;
71629;SDS011;59479;51.902;8.212;2022-11-23T18:15:23;5.63;;;2.30;;
71629;SDS011;59479;51.902;8.212;2022-11-23T18:18:15;7.28;;;2.20;;
71629;SDS011;59479;51.902;8.212;2022-11-23T18:24:43;6.88;;;1.90;;
71629;SDS011;59479;51.902;8.212;2022-11-23T18:37:54;7.63;;;2.40;;
71629;SDS011;59479;51.902;8.212;2022-11-23T18:43:14;6.30;;;2.40;;
71629;SDS011;59479;51.902;8.212;2022-11-23T18:45:47;8.17;;;2.37;;
71629;SDS011;59479;51.902;8.212;2022-11-23T18:52:27;6.35;;;2.30;;
71629;SDS011;59479;51.902;8.212;2022-11-23T19:28:47;5.07;;;2.75;;
71629;SDS011;59479;51.902;8.212;2022-11-23T19:36:48;6.83;;;2.30;;
71629;SDS011;59479;51.902;8.212;2022-11-23T19:40:11;7.97;;;2.22;;
71629;SDS011;59479;51.902;8.212;2022-11-23T19:42:46;7.18;;;2.63;;
71629;SDS011;59479;51.902;8.212;2022-11-23T19:52:43;8.83;;;2.73;;